Gostivar, Macedonia
Current Conditions -  °F | °C
As of 9:00 PM on Thursday 23 Oct 2014 (Local Time) from LWSK Reporting Station
Scattered Clouds Scattered Clouds  
Wind Chill: 41°   Ceiling: Unl
Heat Index: 41°   Visibility: 6mi
Dew Point: 36°   Wind: 2mph
Humidity: 81%   Direction: 90°E
Pressure: 29.77"   Gusts: NA
Location:  41.8°N, 20.92°E
Report Text: LWSK 231900Z 09002KT 9999 SCT060 05/02 Q1008 NOSIG
Loading
Personal Weather Stations






























Interactive Weather Map
Tropical Storm Tracking
New forecast layout! Learn more

10-Day Weather Forecast

Advertisements
Track Severe Weather on mobile